Time;durP1;ratioP1;P1;durP2;ratioP2;P2;SDS_P1;SDS_P2;PMS_P1;PMS_P2;Temp;Humidity;BMP_temperature;BMP_pressure;BME280_temperature;BME280_humidity;BME280_pressure;Samples;Min_cycle;Max_cycle;Signal;HPM_P1;HPM_P2
2022/06/27 00:02:07;;;;;;;;;;;;;;;15.13;55.79;95442.13;5038290;28;20094;-62
2022/06/27 00:04:32;;;;;;;;;;;;;;;15.43;54.61;95446.97;5039215;28;19996;-63
2022/06/27 00:06:58;;;;;;;;;;;;;;;15.67;55.71;95463.41;5038578;28;20021;-63
2022/06/27 00:09:23;;;;;;;;;;;;;;;15.85;55.89;95464.56;5039338;28;20639;-63
2022/06/27 00:11:48;;;;;;;;;;;;;;;16.01;55.54;95465.88;5038719;28;20296;-64
2022/06/27 00:14:13;;;;;;;;;;;;;;;16.21;55.50;95476.50;5037780;28;19995;-64
2022/06/27 00:16:39;;;;;;;;;;;;;;;16.36;54.69;95472.72;5043103;28;19968;-63
2022/06/27 00:19:04;;;;;;;;;;;;;;;16.45;54.86;95471.41;5041965;28;19999;-63
2022/06/27 00:21:29;;;;;;;;;;;;;;;16.37;53.23;95458.25;5042124;28;20442;-63
2022/06/27 00:23:54;;;;;;;;;;;;;;;16.55;54.31;95459.34;5042549;28;19975;-63
2022/06/27 00:26:20;;;;;;;;;;;;;;;16.48;52.98;95444.09;5042319;28;19986;-64
2022/06/27 00:28:45;;;;;;;;;;;;;;;16.55;53.91;95453.97;5042284;28;20651;-62
2022/06/27 00:31:10;;;;;;;;;;;;;;;16.67;53.69;95449.53;5042272;28;20018;-62
2022/06/27 00:33:35;;;;;;;;;;;;;;;16.79;54.08;95462.22;5042063;28;20059;-61
2022/06/27 00:36:01;;;;;;;;;;;;;;;16.87;52.81;95456.56;5042161;28;20548;-62
2022/06/27 00:38:26;;;;;;;;;;;;;;;16.98;53.54;95466.59;5041872;28;20479;-62
2022/06/27 00:40:51;;;;;;;;;;;;;;;17.10;53.90;95455.09;5041330;28;20036;-62
2022/06/27 00:43:16;;;;;;;;;;;;;;;17.01;52.40;95433.88;5041555;28;19992;-62
2022/06/27 00:45:42;;;;;;;;;;;;;;;17.07;52.57;95431.31;5041744;28;20011;-62
2022/06/27 00:48:07;;;;;;;;;;;;;;;16.52;52.17;95421.13;5041962;28;20063;-62
2022/06/27 00:50:32;;;;;;;;;;;;;;;16.70;53.18;95422.19;5049774;28;20018;-62
2022/06/27 00:52:57;;;;;;;;;;;;;;;16.74;52.93;95426.09;5041639;28;19977;-62
2022/06/27 00:55:23;;;;;;;;;;;;;;;16.93;52.98;95431.47;5041213;28;20418;-62
2022/06/27 00:57:48;;;;;;;;;;;;;;;17.01;52.47;95416.91;5046341;28;20074;-62
2022/06/27 01:00:13;;;;;;;;;;;;;;;17.09;52.54;95413.09;5041589;28;20406;-62
2022/06/27 01:02:39;;;;;;;;;;;;;;;17.20;52.42;95416.94;5041476;28;20428;-62
2022/06/27 01:05:04;;;;;;;;;;;;;;;17.24;51.55;95410.06;5041520;28;19965;-62
2022/06/27 01:07:30;;;;;;;;;;;;;;;17.08;52.03;95401.53;5041139;28;19980;-62
2022/06/27 01:09:55;;;;;;;;;;;;;;;17.04;52.24;95394.97;5041394;28;19984;-62
2022/06/27 01:12:21;;;;;;;;;;;;;;;17.22;52.59;95393.31;5040211;28;20540;-62
2022/06/27 01:14:46;;;;;;;;;;;;;;;17.15;51.43;95379.97;5041179;28;20315;-62
2022/06/27 01:17:11;;;;;;;;;;;;;;;17.19;51.98;95370.38;5034924;28;19966;-62
2022/06/27 01:19:37;;;;;;;;;;;;;;;17.21;52.20;95371.00;5037716;28;20138;-62
2022/06/27 01:22:20;;;;;;;;;;;;;;;17.08;51.97;95361.19;5038109;28;20080;-62
2022/06/27 01:24:46;;;;;;;;;;;;;;;17.14;51.92;95378.31;5040145;28;20073;-62
2022/06/27 01:27:11;;;;;;;;;;;;;;;17.21;51.48;95371.00;5039229;28;20074;-62
2022/06/27 01:29:36;;;;;;;;;;;;;;;16.74;51.12;95366.97;5039499;28;19998;-62
2022/06/27 01:32:02;;;;;;;;;;;;;;;16.97;52.63;95370.84;5040570;28;19964;-62
2022/06/27 01:34:27;;;;;;;;;;;;;;;17.06;52.20;95371.34;5029645;28;20544;-63
2022/06/27 01:36:52;;;;;;;;;;;;;;;17.18;52.64;95363.38;5032344;28;20028;-62
2022/06/27 01:39:18;;;;;;;;;;;;;;;17.30;51.73;95362.59;5040686;28;20036;-64
2022/06/27 01:41:47;;;;;;;;;;;;;;;17.30;52.28;95368.78;5039318;28;19988;-62
2022/06/27 01:44:13;;;;;;;;;;;;;;;17.30;52.08;95368.00;5039389;28;19966;-62
2022/06/27 01:46:38;;;;;;;;;;;;;;;17.10;51.98;95371.72;5040387;28;19995;-62
2022/06/27 01:49:03;;;;;;;;;;;;;;;17.15;52.69;95378.09;5040465;28;20016;-62
2022/06/27 01:51:28;;;;;;;;;;;;;;;17.20;52.57;95377.41;5040273;28;20084;-62
2022/06/27 01:53:54;;;;;;;;;;;;;;;17.30;52.10;95379.56;5038235;28;20314;-62
2022/06/27 01:56:19;;;;;;;;;;;;;;;16.98;51.16;95382.41;5040536;28;20339;-62
2022/06/27 01:58:44;;;;;;;;;;;;;;;16.96;51.63;95377.25;5039908;28;20158;-62
2022/06/27 02:01:09;;;;;;;;;;;;;;;17.01;51.97;95382.78;5040293;28;20027;-62
2022/06/27 02:03:35;;;;;;;;;;;;;;;17.11;51.68;95382.28;5036430;28;20021;-62
2022/06/27 02:06:00;;;;;;;;;;;;;;;17.01;51.73;95390.03;5039320;28;20518;-62
2022/06/27 02:08:25;;;;;;;;;;;;;;;17.05;51.57;95385.84;5040410;28;20106;-62
2022/06/27 02:10:50;;;;;;;;;;;;;;;17.09;50.94;95362.00;5036911;28;20045;-62
2022/06/27 02:13:15;;;;;;;;;;;;;;;17.16;51.52;95354.69;5040382;28;19967;-62
2022/06/27 02:15:59;;;;;;;;;;;;;;;17.22;51.38;95352.97;5039579;28;20014;-62
2022/06/27 02:18:25;;;;;;;;;;;;;;;17.30;51.93;95365.28;5036268;28;20023;-62
2022/06/27 02:20:50;;;;;;;;;;;;;;;16.97;51.20;95370.00;5038587;28;19983;-63
2022/06/27 02:23:15;;;;;;;;;;;;;;;17.04;51.45;95362.69;5038283;28;19988;-62
2022/06/27 02:25:40;;;;;;;;;;;;;;;17.10;52.48;95355.59;5053653;28;20066;-63
2022/06/27 02:28:05;;;;;;;;;;;;;;;17.10;52.38;95359.06;5036911;28;20056;-63
2022/06/27 02:30:31;;;;;;;;;;;;;;;17.07;51.38;95353.34;5037674;28;20023;-63
2022/06/27 02:32:56;;;;;;;;;;;;;;;17.14;50.85;95351.44;5046808;28;20051;-63
2022/06/27 02:35:21;;;;;;;;;;;;;;;17.05;52.18;95348.19;5045636;28;20019;-63
2022/06/27 02:37:47;;;;;;;;;;;;;;;17.10;51.28;95355.59;5042484;28;20389;-63
2022/06/27 02:40:12;;;;;;;;;;;;;;;17.00;51.72;95351.53;5043700;28;19979;-63
2022/06/27 02:42:37;;;;;;;;;;;;;;;16.99;51.78;95349.06;5042017;28;20484;-63
2022/06/27 02:45:02;;;;;;;;;;;;;;;17.07;52.67;95356.03;5042557;28;20403;-63
2022/06/27 02:47:28;;;;;;;;;;;;;;;17.09;51.63;95359.31;5040523;28;20489;-63
2022/06/27 02:49:53;;;;;;;;;;;;;;;17.08;52.11;95368.41;5041161;28;19988;-63
2022/06/27 02:52:19;;;;;;;;;;;;;;;17.13;52.12;95360.53;5042126;28;19958;-63
2022/06/27 02:54:48;;;;;;;;;;;;;;;17.10;50.71;95364.47;5037945;28;19977;-63
2022/06/27 02:57:15;;;;;;;;;;;;;;;16.95;52.03;95370.22;5024450;28;19968;-63
2022/06/27 02:59:41;;;;;;;;;;;;;;;17.02;51.43;95362.09;5031550;28;20074;-63
2022/06/27 03:02:07;;;;;;;;;;;;;;;17.10;51.22;95371.72;5031034;28;20551;-63
2022/06/27 03:04:32;;;;;;;;;;;;;;;17.17;50.72;95366.28;5028110;28;20465;-63
2022/06/27 03:06:57;;;;;;;;;;;;;;;17.32;50.29;95357.81;5035762;28;19994;-63
2022/06/27 03:09:22;;;;;;;;;;;;;;;17.31;49.97;95348.94;5042839;28;21608;-63
2022/06/27 03:11:48;;;;;;;;;;;;;;;17.31;50.38;95343.56;5042897;28;20509;-63
2022/06/27 03:14:13;;;;;;;;;;;;;;;17.42;50.20;95339.25;5042822;28;20390;-63
2022/06/27 03:16:38;;;;;;;;;;;;;;;17.24;50.54;95334.75;5043346;28;20072;-63
2022/06/27 03:19:03;;;;;;;;;;;;;;;16.71;51.54;95332.47;5042856;28;20128;-63
2022/06/27 03:21:29;;;;;;;;;;;;;;;16.96;51.76;95320.78;5042744;28;20035;-63
2022/06/27 03:23:54;;;;;;;;;;;;;;;17.14;50.99;95314.56;5043261;28;20452;-64
2022/06/27 03:26:19;;;;;;;;;;;;;;;16.95;51.05;95303.00;5042551;28;19980;-63
2022/06/27 03:28:45;;;;;;;;;;;;;;;17.02;51.14;95305.63;5043180;28;19968;-63
2022/06/27 03:31:10;;;;;;;;;;;;;;;16.96;51.50;95296.59;5042580;28;19987;-63
2022/06/27 03:33:36;;;;;;;;;;;;;;;16.98;51.17;95304.44;5042703;28;19976;-63
2022/06/27 03:36:01;;;;;;;;;;;;;;;16.58;51.78;95305.72;5042928;28;20043;-63
2022/06/27 03:38:26;;;;;;;;;;;;;;;16.78;51.69;95310.88;5042663;28;20155;-63
2022/06/27 03:40:51;;;;;;;;;;;;;;;16.45;52.50;95309.41;5042664;28;19988;-63
2022/06/27 03:43:17;;;;;;;;;;;;;;;16.63;52.27;95300.50;5042673;28;19989;-63
2022/06/27 03:45:42;;;;;;;;;;;;;;;16.44;52.64;95303.19;5042558;28;20204;-63
2022/06/27 03:48:07;;;;;;;;;;;;;;;16.56;52.29;95313.19;5043416;28;20441;-63
2022/06/27 03:50:33;;;;;;;;;;;;;;;16.61;52.22;95316.03;5046710;28;19991;-64
2022/06/27 03:52:58;;;;;;;;;;;;;;;16.61;51.89;95327.59;5046666;28;20055;-63
2022/06/27 03:55:23;;;;;;;;;;;;;;;16.58;51.86;95329.91;5046711;28;20018;-64
2022/06/27 03:57:52;;;;;;;;;;;;;;;16.54;52.99;95321.47;5046175;28;20023;-63
2022/06/27 04:00:18;;;;;;;;;;;;;;;16.75;52.87;95328.28;5046689;28;20008;-63
2022/06/27 04:02:44;;;;;;;;;;;;;;;16.74;52.41;95328.50;5045734;28;20019;-63
2022/06/27 04:05:09;;;;;;;;;;;;;;;16.76;52.73;95332.59;5046750;28;20051;-63
2022/06/27 04:07:34;;;;;;;;;;;;;;;16.62;52.02;95326.56;5038163;28;19975;-63
2022/06/27 04:09:59;;;;;;;;;;;;;;;16.71;51.43;95337.00;5046524;28;20025;-63
2022/06/27 04:12:25;;;;;;;;;;;;;;;16.72;51.32;95338.63;5046560;28;19968;-63
2022/06/27 04:14:50;;;;;;;;;;;;;;;16.92;51.49;95335.72;5046407;28;20499;-63
2022/06/27 04:17:15;;;;;;;;;;;;;;;16.94;51.24;95339.03;5045800;28;20408;-63
2022/06/27 04:19:41;;;;;;;;;;;;;;;16.92;51.49;95337.63;5046085;28;19998;-63
2022/06/27 04:22:08;;;;;;;;;;;;;;;16.96;51.29;95334.22;5045976;28;20547;-64
2022/06/27 04:24:34;;;;;;;;;;;;;;;17.02;52.24;95344.09;5046201;28;20541;-63
2022/06/27 04:26:59;;;;;;;;;;;;;;;17.10;51.79;95353.69;5045663;28;19984;-63
2022/06/27 04:29:26;;;;;;;;;;;;;;;17.27;51.17;95351.25;5045606;28;19969;-64
2022/06/27 04:31:51;;;;;;;;;;;;;;;17.49;50.01;95353.44;5060877;28;19961;-64
2022/06/27 04:34:16;;;;;;;;;;;;;;;17.44;49.90;95345.22;5045650;28;19989;-64
2022/06/27 04:36:41;;;;;;;;;;;;;;;17.26;50.22;95328.09;5046422;28;19983;-63
2022/06/27 04:39:08;;;;;;;;;;;;;;;17.37;49.97;95348.00;5045312;28;19997;-63
2022/06/27 04:41:33;;;;;;;;;;;;;;;16.99;51.17;95366.03;5045737;28;19970;-63
2022/06/27 04:43:58;;;;;;;;;;;;;;;16.48;52.56;95360.81;5044560;28;20112;-63
2022/06/27 04:46:24;;;;;;;;;;;;;;;16.60;52.25;95357.38;5045447;28;19996;-63
2022/06/27 04:48:49;;;;;;;;;;;;;;;16.25;53.10;95356.84;5046145;28;19962;-63
2022/06/27 04:51:14;;;;;;;;;;;;;;;16.31;53.24;95363.22;5044813;28;19986;-63
2022/06/27 04:53:40;;;;;;;;;;;;;;;16.25;53.38;95364.91;5045395;28;19977;-63
2022/06/27 04:56:08;;;;;;;;;;;;;;;16.04;53.85;95352.69;5045184;28;20104;-64
2022/06/27 04:58:33;;;;;;;;;;;;;;;15.32;55.59;95364.50;5045063;28;19993;-63
2022/06/27 05:00:59;;;;;;;;;;;;;;;15.45;55.74;95374.34;5044176;28;19994;-63
2022/06/27 05:03:24;;;;;;;;;;;;;;;15.15;56.69;95378.41;5044774;28;20733;-63
2022/06/27 05:05:52;;;;;;;;;;;;;;;15.27;56.13;95375.91;5043917;28;20208;-64
2022/06/27 05:08:17;;;;;;;;;;;;;;;15.40;55.88;95374.97;5044709;28;19979;-63
2022/06/27 05:10:43;;;;;;;;;;;;;;;14.90;57.10;95372.94;5044384;28;19984;-63
2022/06/27 05:13:08;;;;;;;;;;;;;;;14.82;57.33;95382.06;5044871;28;20021;-63
2022/06/27 05:15:36;;;;;;;;;;;;;;;14.64;57.99;95388.88;5044286;28;19989;-63
2022/06/27 05:18:01;;;;;;;;;;;;;;;14.51;58.68;95396.94;5044777;28;19989;-63
2022/06/27 05:20:28;;;;;;;;;;;;;;;13.99;59.82;95389.53;5044846;28;20000;-63
2022/06/27 05:22:53;;;;;;;;;;;;;;;14.40;59.36;95375.09;5044051;28;20489;-63
2022/06/27 05:25:18;;;;;;;;;;;;;;;14.26;59.18;95376.97;5044773;28;19981;-63
2022/06/27 05:27:44;;;;;;;;;;;;;;;13.89;60.43;95365.84;5044159;28;20353;-63
2022/06/27 05:30:10;;;;;;;;;;;;;;;13.42;61.46;95375.44;5044017;28;19997;-63
2022/06/27 05:32:35;;;;;;;;;;;;;;;13.75;60.84;95373.84;5044459;28;19977;-63
2022/06/27 05:35:00;;;;;;;;;;;;;;;14.13;59.69;95369.78;5043893;28;19996;-64
2022/06/27 05:37:27;;;;;;;;;;;;;;;14.31;60.04;95339.69;5043766;28;20001;-63
2022/06/27 05:39:52;;;;;;;;;;;;;;;14.20;59.99;95343.81;5042328;28;20070;-63
2022/06/27 05:42:18;;;;;;;;;;;;;;;14.98;57.94;95357.47;5044258;28;20510;-63
2022/06/27 05:44:43;;;;;;;;;;;;;;;15.42;56.56;95343.41;5044687;28;19978;-63
2022/06/27 05:47:09;;;;;;;;;;;;;;;15.63;54.54;95340.66;5042904;28;20004;-63
2022/06/27 05:49:34;;;;;;;;;;;;;;;16.23;56.78;95364.31;5043198;28;20055;-64
2022/06/27 05:52:00;;;;;;;;;;;;;;;16.37;54.91;95370.44;5043499;28;20118;-63
2022/06/27 05:54:26;;;;;;;;;;;;;;;16.37;54.27;95380.34;5043504;28;19991;-63
2022/06/27 05:56:52;;;;;;;;;;;;;;;16.26;54.11;95396.09;5041973;28;20171;-63
2022/06/27 05:59:17;;;;;;;;;;;;;;;16.34;54.55;95397.69;5042425;28;20528;-63
2022/06/27 06:01:43;;;;;;;;;;;;;;;16.49;53.78;95404.63;5042762;28;19968;-64
2022/06/27 06:04:08;;;;;;;;;;;;;;;16.16;53.88;95401.16;5043385;28;20438;-64
2022/06/27 06:06:33;;;;;;;;;;;;;;;16.06;53.85;95393.59;5038876;28;20353;-64
2022/06/27 06:09:01;;;;;;;;;;;;;;;15.77;54.43;95406.59;5043126;28;20480;-64
2022/06/27 06:11:27;;;;;;;;;;;;;;;15.96;52.79;95407.50;5041481;28;20078;-65
2022/06/27 06:13:53;;;;;;;;;;;;;;;16.21;53.01;95422.78;5040468;28;19991;-64
2022/06/27 06:16:20;;;;;;;;;;;;;;;16.34;53.16;95416.50;5042955;28;19972;-64
2022/06/27 06:18:47;;;;;;;;;;;;;;;16.18;52.49;95433.16;5041090;28;19994;-64
2022/06/27 06:21:12;;;;;;;;;;;;;;;16.15;53.53;95431.75;5043031;28;20001;-64
2022/06/27 06:23:38;;;;;;;;;;;;;;;16.17;52.10;95429.66;5041411;28;20026;-64
2022/06/27 06:26:05;;;;;;;;;;;;;;;16.21;51.92;95427.34;5042714;28;20642;-64
2022/06/27 06:28:30;;;;;;;;;;;;;;;16.33;53.31;95439.03;5042480;28;20441;-64
2022/06/27 06:30:56;;;;;;;;;;;;;;;16.28;52.74;95446.09;5041483;28;19990;-64
2022/06/27 06:33:21;;;;;;;;;;;;;;;16.41;50.17;95440.63;5041892;28;20012;-64
2022/06/27 06:35:46;;;;;;;;;;;;;;;16.63;48.88;95429.50;5042485;28;19997;-64
2022/06/27 06:38:12;;;;;;;;;;;;;;;17.19;47.95;95428.72;5039807;28;19999;-64
2022/06/27 06:40:39;;;;;;;;;;;;;;;17.59;49.43;95443.56;5039902;28;20500;-64
2022/06/27 06:43:05;;;;;;;;;;;;;;;18.02;46.05;95453.34;5043299;28;20264;-69
2022/06/27 06:45:30;;;;;;;;;;;;;;;18.31;45.73;95461.63;5040932;28;19960;-64
2022/06/27 06:47:55;;;;;;;;;;;;;;;18.56;46.03;95457.91;5042456;28;20351;-64
2022/06/27 06:50:21;;;;;;;;;;;;;;;18.94;44.32;95469.28;5041683;28;19981;-64
2022/06/27 06:52:49;;;;;;;;;;;;;;;19.16;43.26;95473.25;5043292;28;20430;-63
2022/06/27 06:55:15;;;;;;;;;;;;;;;19.23;42.57;95478.56;5041248;28;19990;-63
2022/06/27 06:57:40;;;;;;;;;;;;;;;19.39;42.91;95468.91;5040681;28;19968;-64
2022/06/27 07:00:06;;;;;;;;;;;;;;;19.62;41.29;95467.22;5038061;28;19975;-63
2022/06/27 07:02:31;;;;;;;;;;;;;;;19.70;42.17;95472.22;5033544;28;20049;-63
2022/06/27 07:04:58;;;;;;;;;;;;;;;19.71;41.25;95480.09;5048088;28;19976;-63
2022/06/27 07:07:25;;;;;;;;;;;;;;;19.87;41.39;95466.88;5034643;28;20037;-63
2022/06/27 07:09:50;;;;;;;;;;;;;;;20.25;39.73;95464.59;5034458;28;20351;-67
2022/06/27 07:12:16;;;;;;;;;;;;;;;20.67;42.06;95455.28;5035482;28;20467;-63
2022/06/27 07:14:42;;;;;;;;;;;;;;;21.10;38.61;95447.53;5042612;28;20364;-63
2022/06/27 07:17:07;;;;;;;;;;;;;;;21.30;38.05;95448.88;5037060;28;20438;-63
2022/06/27 07:19:33;;;;;;;;;;;;;;;21.49;37.43;95438.56;5030898;28;19980;-63
2022/06/27 07:21:59;;;;;;;;;;;;;;;21.70;37.91;95417.13;5037971;28;20382;-63
2022/06/27 07:24:25;;;;;;;;;;;;;;;21.98;36.13;95406.31;5041408;28;19959;-63
2022/06/27 07:26:52;;;;;;;;;;;;;;;22.09;37.02;95402.63;5041562;28;19998;-63
2022/06/27 07:29:17;;;;;;;;;;;;;;;22.20;37.01;95408.94;5038212;28;19993;-64
2022/06/27 07:31:42;;;;;;;;;;;;;;;22.05;36.22;95401.50;5044665;28;20556;-63
2022/06/27 07:34:08;;;;;;;;;;;;;;;22.38;36.05;95396.06;5039963;28;19969;-63
2022/06/27 07:36:35;;;;;;;;;;;;;;;22.41;35.16;95396.34;5040850;28;19974;-63
2022/06/27 07:39:00;;;;;;;;;;;;;;;22.82;36.41;95402.34;5042013;28;20539;-63
2022/06/27 07:41:26;;;;;;;;;;;;;;;23.28;37.19;95410.75;5039711;28;19978;-63
2022/06/27 07:43:52;;;;;;;;;;;;;;;23.49;36.92;95415.44;5040395;28;20052;-63
2022/06/27 07:46:20;;;;;;;;;;;;;;;23.47;35.91;95423.03;5031145;28;19989;-63
2022/06/27 07:48:46;;;;;;;;;;;;;;;23.50;33.87;95426.06;5042202;28;19943;-63
2022/06/27 07:51:14;;;;;;;;;;;;;;;23.66;34.58;95432.34;5039147;28;20610;-63
2022/06/27 07:53:41;;;;;;;;;;;;;;;22.40;37.60;95434.59;5039197;28;20027;-64
2022/06/27 07:56:06;;;;;;;;;;;;;;;22.98;36.91;95433.91;5042340;28;19993;-63
2022/06/27 07:58:33;;;;;;;;;;;;;;;23.37;35.28;95440.94;5040189;28;20549;-63
2022/06/27 08:00:59;;;;;;;;;;;;;;;23.21;35.78;95453.63;5034856;28;20255;-63
2022/06/27 08:03:36;;;;;;;;;;;;;;;22.31;37.46;95461.38;5040010;28;19971;-64
2022/06/27 08:06:04;;;;;;;;;;;;;;;21.99;37.14;95456.75;5026573;28;19968;-64
2022/06/27 08:08:33;;;;;;;;;;;;;;;22.49;36.87;95459.31;5038363;28;20080;-64
2022/06/27 08:10:58;;;;;;;;;;;;;;;22.48;36.83;95455.81;5039549;28;20060;-63
2022/06/27 08:13:24;;;;;;;;;;;;;;;22.23;37.36;95457.22;5041843;28;20302;-63
2022/06/27 08:15:50;;;;;;;;;;;;;;;21.96;39.25;95470.78;5041211;28;20215;-64
2022/06/27 08:18:15;;;;;;;;;;;;;;;20.74;40.90;95466.75;5039009;28;20195;-64
2022/06/27 08:20:42;;;;;;;;;;;;;;;20.89;40.28;95451.00;5038421;28;20097;-64
2022/06/27 08:23:08;;;;;;;;;;;;;;;21.30;38.64;95467.84;5038582;28;20458;-64
2022/06/27 08:25:34;;;;;;;;;;;;;;;20.89;40.52;95469.94;5039853;28;20076;-64
2022/06/27 08:28:00;;;;;;;;;;;;;;;20.89;40.74;95461.81;5039199;28;19945;-64
2022/06/27 08:30:25;;;;;;;;;;;;;;;20.73;41.81;95485.94;5039922;28;20507;-63
2022/06/27 08:32:56;;;;;;;;;;;;;;;21.64;39.23;95483.13;5041180;28;19988;-64
2022/06/27 08:35:25;;;;;;;;;;;;;;;21.94;39.40;95491.91;5035094;28;19979;-64
2022/06/27 08:37:54;;;;;;;;;;;;;;;22.10;38.03;95493.69;5039953;28;20997;-65
2022/06/27 08:40:19;;;;;;;;;;;;;;;22.18;37.48;95488.88;5041209;28;19972;-64
2022/06/27 08:42:45;;;;;;;;;;;;;;;22.06;38.69;95500.69;5040970;28;19958;-64
2022/06/27 08:45:11;;;;;;;;;;;;;;;21.60;38.52;95493.66;5040242;28;19984;-64
2022/06/27 08:47:36;;;;;;;;;;;;;;;21.87;39.17;95506.44;5036168;28;19965;-64
2022/06/27 08:50:01;;;;;;;;;;;;;;;21.63;39.22;95517.56;5039078;28;19991;-64
2022/06/27 08:52:28;;;;;;;;;;;;;;;21.83;38.84;95512.63;5040064;28;19952;-64
2022/06/27 08:54:56;;;;;;;;;;;;;;;22.11;38.29;95516.19;5039551;28;19969;-64
2022/06/27 08:57:22;;;;;;;;;;;;;;;20.57;41.83;95520.00;5038794;28;20065;-64
2022/06/27 08:59:49;;;;;;;;;;;;;;;21.11;40.29;95516.00;5038863;28;20117;-64
2022/06/27 09:02:16;;;;;;;;;;;;;;;22.31;38.23;95515.59;5038232;28;19968;-64
2022/06/27 09:05:08;;;;;;;;;;;;;;;23.10;37.22;95507.00;5039639;28;19985;-64
2022/06/27 09:07:45;;;;;;;;;;;;;;;23.75;34.99;95508.75;5019675;28;20361;-63
2022/06/27 09:10:30;;;;;;;;;;;;;;;23.78;34.29;95510.13;5036108;28;19965;-64
2022/06/27 09:12:56;;;;;;;;;;;;;;;22.69;36.64;95515.69;5033893;28;19937;-63
2022/06/27 09:15:26;;;;;;;;;;;;;;;23.51;35.61;95522.75;5050938;28;19981;-63
2022/06/27 09:17:59;;;;;;;;;;;;;;;22.76;37.02;95545.28;5042226;28;20138;-63
2022/06/27 09:20:25;;;;;;;;;;;;;;;22.07;38.40;95547.59;5039505;28;19965;-64
2022/06/27 09:22:52;;;;;;;;;;;;;;;21.29;40.49;95543.88;5037094;28;19978;-64
2022/06/27 09:25:22;;;;;;;;;;;;;;;20.92;40.14;95553.31;5038688;28;20441;-64
2022/06/27 09:27:50;;;;;;;;;;;;;;;21.24;40.71;95544.59;5055893;28;19971;-64
2022/06/27 09:30:18;;;;;;;;;;;;;;;20.77;42.08;95549.28;5040285;28;20026;-64
2022/06/27 09:32:43;;;;;;;;;;;;;;;19.97;43.55;95539.22;5037213;28;19955;-63
2022/06/27 09:35:20;;;;;;;;;;;;;;;20.79;41.13;95536.34;5039340;28;20027;-63
2022/06/27 09:37:53;;;;;;;;;;;;;;;20.22;42.30;95524.53;5037237;28;19990;-63
2022/06/27 09:40:18;;;;;;;;;;;;;;;19.27;44.75;95534.53;5039896;28;20015;-63
2022/06/27 09:42:44;;;;;;;;;;;;;;;18.24;45.97;95540.91;5053153;28;19983;-63
2022/06/27 09:45:10;;;;;;;;;;;;;;;18.60;45.86;95543.72;5040213;28;19967;-63
2022/06/27 09:47:36;;;;;;;;;;;;;;;18.40;46.12;95550.22;5033129;28;19989;-63
2022/06/27 09:50:03;;;;;;;;;;;;;;;18.41;46.76;95544.59;5042012;28;20036;-63
2022/06/27 09:52:28;;;;;;;;;;;;;;;18.36;45.38;95555.22;5038138;28;20391;-65
2022/06/27 09:54:54;;;;;;;;;;;;;;;17.83;47.68;95541.41;5036569;28;19991;-65
2022/06/27 09:57:20;;;;;;;;;;;;;;;18.10;46.46;95530.31;5041306;28;19990;-65
2022/06/27 09:59:46;;;;;;;;;;;;;;;18.53;45.67;95539.22;5039458;28;20083;-65
2022/06/27 10:02:13;;;;;;;;;;;;;;;18.52;45.11;95529.50;5039147;28;20660;-65
2022/06/27 10:04:39;;;;;;;;;;;;;;;19.23;44.75;95521.72;5039099;28;19994;-63
2022/06/27 10:07:06;;;;;;;;;;;;;;;19.21;42.93;95516.56;5039194;28;19978;-69
2022/06/27 10:09:32;;;;;;;;;;;;;;;18.72;43.98;95541.88;5039114;28;19974;-63
2022/06/27 10:12:16;;;;;;;;;;;;;;;19.02;43.55;95546.34;5039331;28;19995;-63
2022/06/27 10:14:41;;;;;;;;;;;;;;;18.75;44.26;95554.06;5037636;28;19992;-63
2022/06/27 10:17:07;;;;;;;;;;;;;;;18.35;45.45;95568.94;5037285;28;19963;-59
2022/06/27 10:19:32;;;;;;;;;;;;;;;18.40;45.33;95575.28;5034662;28;20331;-62
2022/06/27 10:21:57;;;;;;;;;;;;;;;18.89;44.93;95568.13;5036375;28;20032;-62
2022/06/27 10:24:24;;;;;;;;;;;;;;;18.74;44.38;95571.28;5036553;28;20401;-62
2022/06/27 10:26:50;;;;;;;;;;;;;;;19.05;42.83;95580.13;5037996;28;19994;-62
2022/06/27 10:29:34;;;;;;;;;;;;;;;19.37;42.16;95584.41;5037755;28;20011;-62
2022/06/27 10:32:02;;;;;;;;;;;;;;;18.48;44.28;95595.69;5037886;28;20042;-62
2022/06/27 10:34:39;;;;;;;;;;;;;;;18.88;44.64;95585.38;5037167;28;20055;-63
2022/06/27 10:37:26;;;;;;;;;;;;;;;19.23;43.02;95605.38;5037553;28;19986;-62
2022/06/27 10:40:15;;;;;;;;;;;;;;;18.58;45.36;95599.72;5035712;28;20060;-64
2022/06/27 10:42:43;;;;;;;;;;;;;;;17.65;47.35;95602.28;5035773;28;20490;-63
2022/06/27 10:45:20;;;;;;;;;;;;;;;18.50;44.79;95593.59;5037783;28;20351;-63
2022/06/27 10:47:45;;;;;;;;;;;;;;;18.21;45.69;95606.84;5036566;28;19992;-63
2022/06/27 10:50:11;;;;;;;;;;;;;;;17.64;47.18;95602.53;5036965;28;20014;-63
2022/06/27 10:52:36;;;;;;;;;;;;;;;18.69;44.24;95612.41;5037258;28;19971;-62
2022/06/27 10:55:02;;;;;;;;;;;;;;;18.74;44.29;95607.19;5034748;28;19990;-63
2022/06/27 10:57:37;;;;;;;;;;;;;;;19.40;43.47;95613.59;5031152;28;19959;-62
2022/06/27 11:00:03;;;;;;;;;;;;;;;19.88;43.08;95598.16;5037401;28;19999;-63
2022/06/27 11:02:29;;;;;;;;;;;;;;;19.63;42.86;95591.19;5037573;28;20636;-63
2022/06/27 11:04:54;;;;;;;;;;;;;;;19.13;44.58;95605.94;5038116;28;19963;-63
2022/06/27 11:07:21;;;;;;;;;;;;;;;18.65;45.88;95601.28;5033404;28;19990;-62
2022/06/27 11:09:47;;;;;;;;;;;;;;;17.91;46.90;95592.28;5037338;28;20501;-62
2022/06/27 11:12:14;;;;;;;;;;;;;;;17.67;47.19;95591.28;5031808;28;19962;-62
2022/06/27 11:14:48;;;;;;;;;;;;;;;18.07;46.58;95594.59;5035099;28;19998;-62
2022/06/27 11:17:32;;;;;;;;;;;;;;;17.63;48.28;95600.84;5038176;28;19975;-62
2022/06/27 11:20:07;;;;;;;;;;;;;;;17.91;48.83;95599.53;5033627;28;19999;-62
2022/06/27 11:22:32;;;;;;;;;;;;;;;18.37;47.41;95607.25;5034123;28;20087;-62
2022/06/27 11:24:58;;;;;;;;;;;;;;;18.66;46.24;95588.63;5042492;28;20079;-62
2022/06/27 11:27:23;;;;;;;;;;;;;;;19.24;44.55;95591.63;5039136;28;20024;-65
2022/06/27 11:32:32;;;;;;;;;;;;;;;19.54;44.44;95582.59;5033671;28;20063;-62
2022/06/27 11:34:57;;;;;;;;;;;;;;;20.12;42.97;95594.63;5037595;28;20049;-62
2022/06/27 11:37:22;;;;;;;;;;;;;;;20.50;42.05;95604.00;5037151;28;19985;-62
2022/06/27 11:39:58;;;;;;;;;;;;;;;20.57;41.52;95610.06;5036284;28;20671;-62
2022/06/27 11:42:27;;;;;;;;;;;;;;;20.30;43.75;95607.13;5042826;28;20343;-63
2022/06/27 11:45:05;;;;;;;;;;;;;;;20.30;42.29;95597.16;5039104;28;19990;-63
2022/06/27 11:47:30;;;;;;;;;;;;;;;20.85;41.57;95605.72;5038442;28;19977;-63
2022/06/27 11:50:06;;;;;;;;;;;;;;;20.57;42.19;95607.34;5037069;28;20417;-62
2022/06/27 11:52:43;;;;;;;;;;;;;;;20.45;43.09;95598.47;5038382;28;20605;-64
2022/06/27 11:55:12;;;;;;;;;;;;;;;20.36;42.28;95593.47;5033449;28;20507;-62
2022/06/27 11:57:38;;;;;;;;;;;;;;;19.69;42.10;95597.50;5032365;28;20388;-63
2022/06/27 12:00:04;;;;;;;;;;;;;;;19.16;43.33;95609.00;5030501;28;19974;-62
2022/06/27 12:02:30;;;;;;;;;;;;;;;19.50;43.38;95600.34;5034386;28;20405;-63
2022/06/27 12:05:04;;;;;;;;;;;;;;;19.09;44.31;95597.50;5037548;28;20436;-62
2022/06/27 12:07:30;;;;;;;;;;;;;;;19.12;43.74;95596.19;5036050;28;20469;-63
2022/06/27 12:09:55;;;;;;;;;;;;;;;19.02;44.77;95594.91;5038308;28;19994;-62
2022/06/27 12:12:21;;;;;;;;;;;;;;;18.82;43.66;95590.66;5040812;28;19969;-62
2022/06/27 12:14:48;;;;;;;;;;;;;;;19.27;42.92;95582.25;5039325;28;20003;-63
2022/06/27 12:17:13;;;;;;;;;;;;;;;19.42;43.55;95576.41;5040214;28;20602;-63
2022/06/27 12:19:41;;;;;;;;;;;;;;;19.22;43.31;95593.75;5039203;28;20003;-63
2022/06/27 12:22:06;;;;;;;;;;;;;;;19.76;42.84;95590.09;5040318;28;20043;-64
2022/06/27 12:24:31;;;;;;;;;;;;;;;19.45;42.52;95600.25;5039175;28;20281;-63
2022/06/27 12:26:57;;;;;;;;;;;;;;;19.05;43.49;95602.53;5040208;28;19993;-62
2022/06/27 12:29:22;;;;;;;;;;;;;;;18.94;44.57;95603.34;5040337;28;20091;-62
2022/06/27 12:31:48;;;;;;;;;;;;;;;19.49;42.20;95606.81;5040279;28;19989;-63
2022/06/27 12:34:13;;;;;;;;;;;;;;;18.71;42.86;95604.94;5038311;28;19990;-63
2022/06/27 12:36:38;;;;;;;;;;;;;;;18.18;44.11;95591.13;5040928;28;20444;-65
2022/06/27 12:39:04;;;;;;;;;;;;;;;19.17;42.44;95590.94;5037969;28;20045;-63
2022/06/27 12:41:29;;;;;;;;;;;;;;;20.04;41.70;95583.13;5041008;28;20018;-63
2022/06/27 12:43:57;;;;;;;;;;;;;;;20.02;40.72;95598.75;5035485;28;20580;-64
2022/06/27 12:46:22;;;;;;;;;;;;;;;20.07;40.79;95604.28;5041426;28;20576;-63
2022/06/27 12:48:48;;;;;;;;;;;;;;;20.12;40.32;95606.22;5037832;28;19969;-63